Hlavní strana
METAR-TAF:

METAR-TAF

Letiště :

Letiště Lublaň

Lublaň, Slovinsko

zeměpisná šířka: 46-13N, zeměpisná délka: 014-29E, výška: 385 m

Aktuální stav počasí

Zpráva byla vytvořena před 18 minutami, v 08:00 UTC
Západní vítr 2 kt
Teplota -4°C
Vlhkost vzduchu 93%
Tlak 1021 hPa
Viditelnost 10 km a více
Žádná oblačnost pod 1500 m, nevyskytují se cumulonimby.

METAR: LJLJ 110800Z 27002KT CAVOK M04/M05 Q1021 NOSIG

Čas: 09:18 (08:18 UTC)

Předpověď počasí

Zpráva byla vytvořena před 3 hodinami a 18 minutami, v 05:00 UTC
Předpověď platná od 11 v 06 UTC do 12 v 06 UTC
vítr z různých směrů 2 kt
Viditelnost 10 km a více
Žádná oblačnost pod 1500 m, nevyskytují se cumulonimby.
Změna
od 11 v 09 UTC do 11 v 11 UTC
Východojihovýchodní vítr 4 kt
Změna
od 11 v 18 UTC do 11 v 20 UTC
Západoseverozápadní vítr 3 kt
Změna
od 12 v 00 UTC do 12 v 03 UTC
Skoro jasno ve výšce 4500 ft

TAF: LJLJ 110500Z 1106/1206 VRB02KT CAVOK BECMG 1109/1111 12004KT BECMG 1118/1120 30003KT BECMG 1200/1203 FEW045

Stav a předpovědi počasí z více než 4 000 letišť (zprávy METAR a TAF).

Červené a žluté tečky na mapě představují dostupné meteorologické stanice.

Když kurzor umístíte na tečku, zobrazí se název stanice.

Pak kliknutím zobrazíte stav a předpověď počasí.

Chcete-li změnit mapu, kliknutím na zelené tlačítko se znaménkem +mapu přiblížíte, kliknutím na zelené tlačítko se znaménkem – mapu oddálíte a kliknutím na zelené šipky přejdete na sousední mapy.


METAR-TAF: